createdAt,value
2019-01-30T00:02:24.482Z,13.50
2019-01-30T00:04:58.075Z,13.90
2019-01-30T00:07:31.711Z,13.37
2019-01-30T00:10:08.020Z,13.63
2019-01-30T00:12:41.645Z,14.57
2019-01-30T00:15:15.381Z,14.47
2019-01-30T00:17:49.041Z,14.93
2019-01-30T00:20:22.726Z,14.70
2019-01-30T00:22:56.373Z,12.67
2019-01-30T00:25:30.087Z,13.07
2019-01-30T00:28:04.977Z,13.07
2019-01-30T00:30:38.689Z,13.90
2019-01-30T00:33:12.272Z,12.23
2019-01-30T00:35:45.969Z,13.37
2019-01-30T00:38:19.637Z,13.93
2019-01-30T00:40:53.350Z,12.73
2019-01-30T00:43:26.942Z,12.10
2019-01-30T00:46:00.544Z,12.83
2019-01-30T00:48:34.245Z,13.57
2019-01-30T00:51:08.049Z,15.67
2019-01-30T00:53:41.756Z,14.13
2019-01-30T00:56:15.316Z,13.90
2019-01-30T00:58:48.904Z,14.33
2019-01-30T01:01:22.622Z,13.13
2019-01-30T01:03:56.230Z,13.80
2019-01-30T01:06:29.866Z,13.63
2019-01-30T01:09:06.641Z,14.13
2019-01-30T01:11:40.311Z,13.53
2019-01-30T01:14:13.905Z,13.20
2019-01-30T01:16:47.508Z,13.13
2019-01-30T01:19:21.253Z,13.13
2019-01-30T01:21:55.159Z,12.43
2019-01-30T01:24:28.761Z,13.20
2019-01-30T01:27:02.351Z,13.77
2019-01-30T01:29:36.012Z,13.30
2019-01-30T01:32:09.715Z,12.50
2019-01-30T01:37:52.697Z,12.87
2019-01-30T01:40:26.376Z,13.20
2019-01-30T01:43:00.060Z,11.80
2019-01-30T01:45:33.653Z,11.57
2019-01-30T01:48:07.432Z,13.47
2019-01-30T01:54:18.303Z,13.07
2019-01-30T01:56:51.920Z,12.27
2019-01-30T01:59:25.554Z,11.93
2019-01-30T02:01:59.208Z,12.53
2019-01-30T02:04:32.850Z,11.17
2019-01-30T02:10:48.148Z,10.77
2019-01-30T02:13:21.754Z,11.40
2019-01-30T02:15:55.372Z,11.57
2019-01-30T02:18:29.182Z,12.97
2019-01-30T02:21:02.874Z,10.30
2019-01-30T02:23:36.458Z,10.40
2019-01-30T02:26:10.234Z,10.53
2019-01-30T02:28:44.418Z,10.53
2019-01-30T02:31:18.064Z,10.83
2019-01-30T02:33:51.657Z,11.13
2019-01-30T02:36:25.370Z,10.50
2019-01-30T02:38:58.956Z,9.70
2019-01-30T02:41:32.592Z,11.00
2019-01-30T02:44:06.262Z,11.13
2019-01-30T02:46:39.860Z,11.37
2019-01-30T02:49:13.492Z,10.77
2019-01-30T02:51:47.072Z,10.50
2019-01-30T02:54:22.252Z,11.97
2019-01-30T02:56:55.839Z,11.10
2019-01-30T02:59:31.150Z,10.70
2019-01-30T03:02:06.657Z,11.27
2019-01-30T03:04:40.360Z,11.57
2019-01-30T03:07:15.460Z,12.87
2019-01-30T03:09:49.164Z,11.90
2019-01-30T03:12:22.806Z,11.90
2019-01-30T03:14:56.441Z,12.17
2019-01-30T03:17:30.032Z,12.63
2019-01-30T03:20:05.698Z,12.13
2019-01-30T03:22:39.364Z,12.37
2019-01-30T03:25:15.102Z,12.30
2019-01-30T03:27:48.706Z,13.53
2019-01-30T03:30:25.441Z,13.77
2019-01-30T03:33:00.112Z,12.77
2019-01-30T03:38:33.900Z,12.27
2019-01-30T03:41:07.566Z,12.73
2019-01-30T03:43:41.211Z,12.70
2019-01-30T03:46:14.858Z,12.93
2019-01-30T03:48:48.503Z,12.30
2019-01-30T03:55:11.211Z,12.33
2019-01-30T03:57:44.988Z,12.10
2019-01-30T04:00:21.446Z,12.63
2019-01-30T04:02:55.269Z,11.20
2019-01-30T04:05:28.972Z,11.33
2019-01-30T04:11:39.251Z,10.83
2019-01-30T04:14:12.857Z,11.63
2019-01-30T04:16:46.510Z,12.43
2019-01-30T04:19:20.156Z,12.00
2019-01-30T04:21:53.782Z,12.90
2019-01-30T04:24:27.392Z,14.33
2019-01-30T04:27:00.990Z,13.13
2019-01-30T04:29:34.691Z,14.13
2019-01-30T04:32:08.637Z,15.70
2019-01-30T04:34:42.334Z,15.47
2019-01-30T04:37:15.934Z,14.07
2019-01-30T04:39:49.617Z,14.30
2019-01-30T04:42:23.234Z,13.83
2019-01-30T04:44:56.920Z,12.97
2019-01-30T04:47:30.506Z,14.10
2019-01-30T04:50:05.350Z,13.47
2019-01-30T04:52:39.017Z,14.10
2019-01-30T04:55:12.892Z,13.37
2019-01-30T04:57:46.623Z,13.10
2019-01-30T05:00:24.893Z,14.20
2019-01-30T05:02:58.481Z,13.57
2019-01-30T05:05:32.322Z,13.37
2019-01-30T05:08:05.912Z,13.53
2019-01-30T05:10:39.559Z,16.40
2019-01-30T05:13:13.211Z,12.60
2019-01-30T05:15:46.821Z,14.00
2019-01-30T05:18:20.536Z,14.17
2019-01-30T05:20:54.213Z,15.10
2019-01-30T05:23:27.825Z,13.43
2019-01-30T05:26:01.531Z,11.83
2019-01-30T05:28:35.192Z,13.33
2019-01-30T05:31:08.940Z,13.83
2019-01-30T05:33:42.514Z,12.40
2019-01-30T05:36:16.147Z,13.10
2019-01-30T05:38:49.728Z,11.90
2019-01-30T05:41:23.376Z,13.50
2019-01-30T05:43:56.975Z,11.97
2019-01-30T05:46:30.665Z,12.30
2019-01-30T05:49:04.290Z,12.43
2019-01-30T05:54:38.244Z,14.13
2019-01-30T05:57:11.908Z,16.67
2019-01-30T05:59:45.527Z,14.17
2019-01-30T06:02:19.139Z,14.43
2019-01-30T06:04:52.816Z,13.47
2019-01-30T06:11:03.899Z,12.33
2019-01-30T06:13:37.490Z,14.67
2019-01-30T06:16:11.142Z,14.50
2019-01-30T06:18:44.874Z,13.57
2019-01-30T06:21:18.583Z,12.47
2019-01-30T06:27:38.459Z,13.73
2019-01-30T06:30:15.205Z,12.37
2019-01-30T06:32:48.937Z,13.53
2019-01-30T06:35:22.632Z,13.63
2019-01-30T06:37:56.356Z,13.33
2019-01-30T06:40:31.896Z,14.73
2019-01-30T06:43:05.834Z,14.03
2019-01-30T06:45:39.476Z,13.03
2019-01-30T06:48:13.143Z,14.07
2019-01-30T06:50:46.927Z,13.83
2019-01-30T06:53:20.651Z,14.33
2019-01-30T06:55:54.363Z,14.40
2019-01-30T06:58:28.066Z,14.20
2019-01-30T07:01:01.664Z,13.70
2019-01-30T07:03:35.288Z,14.43
2019-01-30T07:06:08.893Z,13.77
2019-01-30T07:08:42.595Z,12.60
2019-01-30T07:11:16.417Z,13.20
2019-01-30T07:13:50.037Z,12.93
2019-01-30T07:16:23.699Z,12.67
2019-01-30T07:18:57.334Z,15.07
2019-01-30T07:21:30.927Z,14.07
2019-01-30T07:24:05.215Z,14.63
2019-01-30T07:26:38.806Z,13.60
2019-01-30T07:29:12.436Z,14.87
2019-01-30T07:31:46.099Z,14.17
2019-01-30T07:34:19.755Z,15.23
2019-01-30T07:36:53.341Z,14.33
2019-01-30T07:39:26.975Z,15.47
2019-01-30T07:42:00.593Z,15.63
2019-01-30T07:44:34.406Z,15.30
2019-01-30T07:47:08.153Z,14.97
2019-01-30T07:49:41.785Z,15.37
2019-01-30T07:52:15.521Z,16.40
2019-01-30T07:54:49.181Z,16.13
2019-01-30T07:57:25.631Z,17.07
2019-01-30T07:59:59.332Z,16.47
2019-01-30T08:02:32.907Z,16.73
2019-01-30T08:05:09.208Z,17.53
2019-01-30T08:07:42.851Z,18.47
2019-01-30T08:10:17.039Z,19.17
2019-01-30T08:12:50.769Z,18.83
2019-01-30T08:15:27.645Z,18.10
2019-01-30T08:18:01.219Z,19.53
2019-01-30T08:20:35.334Z,17.37
2019-01-30T08:26:54.928Z,19.33
2019-01-30T08:29:29.017Z,18.57
2019-01-30T08:32:02.651Z,18.03
2019-01-30T08:34:36.261Z,18.00
2019-01-30T08:37:10.199Z,18.67
2019-01-30T08:43:20.894Z,15.43
2019-01-30T08:45:54.484Z,15.53
2019-01-30T08:48:30.175Z,16.17
2019-01-30T08:51:03.659Z,15.53
2019-01-30T08:53:37.289Z,15.37
2019-01-30T08:56:10.987Z,16.03
2019-01-30T08:58:44.735Z,14.13
2019-01-30T09:01:18.791Z,13.70
2019-01-30T09:03:52.434Z,15.10
2019-01-30T09:06:26.126Z,14.03
2019-01-30T09:08:59.747Z,13.53
2019-01-30T09:11:33.569Z,13.50
2019-01-30T09:14:07.269Z,14.00
2019-01-30T09:16:41.959Z,13.17
2019-01-30T09:19:15.549Z,12.37
2019-01-30T09:21:49.156Z,12.53
2019-01-30T09:24:22.828Z,12.57
2019-01-30T09:26:56.381Z,12.97
2019-01-30T09:29:30.011Z,12.90
2019-01-30T09:32:03.725Z,13.83
2019-01-30T09:34:37.365Z,14.47
2019-01-30T09:37:10.976Z,15.23
2019-01-30T09:39:45.563Z,15.83
2019-01-30T09:42:19.236Z,14.63
2019-01-30T09:44:52.891Z,16.87
2019-01-30T09:47:26.461Z,15.90
2019-01-30T09:50:00.107Z,17.03
2019-01-30T09:52:33.973Z,16.97
2019-01-30T09:55:10.403Z,16.33
2019-01-30T09:57:44.098Z,16.07
2019-01-30T10:00:20.768Z,17.53
2019-01-30T10:02:54.651Z,18.33
2019-01-30T10:05:28.507Z,17.77
2019-01-30T10:08:02.161Z,18.33
2019-01-30T10:10:43.211Z,17.47
2019-01-30T10:13:16.839Z,18.73
2019-01-30T10:15:50.571Z,17.27
2019-01-30T10:18:24.278Z,17.00
2019-01-30T10:20:58.018Z,19.00
2019-01-30T10:23:31.661Z,17.37
2019-01-30T10:26:05.389Z,19.20
2019-01-30T10:28:39.147Z,16.30
2019-01-30T10:31:12.759Z,18.23
2019-01-30T10:33:46.933Z,17.47
2019-01-30T10:36:20.782Z,17.67
2019-01-30T10:42:31.331Z,15.63
2019-01-30T10:45:07.743Z,16.73
2019-01-30T10:47:41.448Z,16.53
2019-01-30T10:50:30.075Z,14.33
2019-01-30T10:53:03.846Z,14.60
2019-01-30T10:59:26.525Z,14.27
2019-01-30T11:01:59.138Z,14.67
2019-01-30T11:04:32.825Z,15.77
2019-01-30T11:07:06.495Z,15.43
2019-01-30T11:09:40.136Z,15.00
2019-01-30T11:12:13.789Z,14.77
2019-01-30T11:14:47.426Z,14.10
2019-01-30T11:17:20.991Z,15.07
2019-01-30T11:19:54.684Z,15.10
2019-01-30T11:22:28.276Z,20.10
2019-01-30T11:25:01.924Z,19.90
2019-01-30T11:27:35.484Z,17.37
2019-01-30T11:30:12.223Z,19.83
2019-01-30T11:32:45.800Z,19.37
2019-01-30T11:35:19.477Z,18.33
2019-01-30T11:37:53.098Z,18.90
2019-01-30T11:40:27.031Z,18.93
2019-01-30T11:43:00.739Z,19.57
2019-01-30T11:45:39.491Z,21.70
2019-01-30T11:48:13.221Z,20.17
2019-01-30T11:50:46.807Z,21.13
2019-01-30T11:53:20.460Z,22.07
2019-01-30T11:55:54.111Z,22.90
2019-01-30T11:58:27.741Z,24.60
2019-01-30T12:01:03.424Z,26.83
2019-01-30T12:03:36.632Z,27.63
2019-01-30T12:06:10.347Z,24.70
2019-01-30T12:08:48.725Z,25.50
2019-01-30T12:11:22.377Z,24.33
2019-01-30T12:13:56.183Z,23.67
2019-01-30T12:16:29.926Z,23.27
2019-01-30T12:19:03.717Z,24.80
2019-01-30T12:21:40.733Z,22.73
2019-01-30T12:24:14.427Z,25.53
2019-01-30T12:26:48.926Z,24.00
2019-01-30T12:29:22.514Z,25.53
2019-01-30T12:31:56.529Z,24.80
2019-01-30T12:34:30.121Z,23.57
2019-01-30T12:37:03.806Z,25.63
2019-01-30T12:43:23.483Z,24.73
2019-01-30T12:45:57.074Z,26.00
2019-01-30T12:48:30.674Z,28.67
2019-01-30T12:51:04.502Z,28.87
2019-01-30T12:53:38.266Z,34.47
2019-01-30T12:59:58.018Z,26.70
2019-01-30T13:02:31.636Z,26.10
2019-01-30T13:05:08.571Z,24.13
2019-01-30T13:07:42.196Z,24.73
2019-01-30T13:10:16.022Z,25.43
2019-01-30T13:12:49.957Z,24.23
2019-01-30T13:15:26.146Z,23.10
2019-01-30T13:18:00.044Z,24.93
2019-01-30T13:20:33.622Z,24.03
2019-01-30T13:23:07.354Z,24.77
2019-01-30T13:25:41.018Z,26.10
2019-01-30T13:28:14.784Z,25.90
2019-01-30T13:30:48.366Z,31.97
2019-01-30T13:33:22.983Z,31.80
2019-01-30T13:35:56.632Z,31.60
2019-01-30T13:38:30.286Z,30.43
2019-01-30T13:41:03.985Z,31.97
2019-01-30T13:43:37.622Z,31.90
2019-01-30T13:46:11.224Z,32.03
2019-01-30T13:48:44.961Z,33.27
2019-01-30T13:51:18.643Z,32.47
2019-01-30T13:53:52.233Z,33.90
2019-01-30T13:56:25.847Z,33.93
2019-01-30T13:58:59.424Z,31.40
2019-01-30T14:01:33.323Z,32.70
2019-01-30T14:04:07.009Z,35.50
2019-01-30T14:06:40.609Z,35.77
2019-01-30T14:09:14.360Z,38.03
2019-01-30T14:11:48.075Z,36.10
2019-01-30T14:14:21.688Z,33.70
2019-01-30T14:16:55.323Z,34.00
2019-01-30T14:19:30.220Z,35.07
2019-01-30T14:22:03.882Z,31.57
2019-01-30T14:24:37.491Z,30.73
2019-01-30T14:27:11.080Z,28.63
2019-01-30T14:29:44.742Z,29.80
2019-01-30T14:32:18.358Z,30.23
2019-01-30T14:34:52.244Z,28.77
2019-01-30T14:37:25.881Z,28.93
2019-01-30T14:40:00.047Z,29.30
2019-01-30T14:42:33.686Z,31.60
2019-01-30T14:45:10.484Z,30.80
2019-01-30T14:47:44.135Z,31.10
2019-01-30T14:50:20.323Z,31.60
2019-01-30T14:52:54.455Z,30.70
2019-01-30T14:59:05.436Z,31.00
2019-01-30T15:01:39.228Z,32.33
2019-01-30T15:04:13.312Z,34.47
2019-01-30T15:06:46.946Z,33.63
2019-01-30T15:09:22.423Z,32.03
2019-01-30T15:15:44.205Z,32.47
2019-01-30T15:18:18.598Z,33.20
2019-01-30T15:20:52.698Z,36.03
2019-01-30T15:23:29.022Z,34.67
2019-01-30T15:26:02.800Z,35.17
2019-01-30T15:28:36.408Z,36.60
2019-01-30T15:31:10.042Z,38.20
2019-01-30T15:33:43.798Z,37.70
2019-01-30T15:36:17.398Z,38.10
2019-01-30T15:38:51.382Z,38.77
2019-01-30T15:41:25.290Z,36.63
2019-01-30T15:43:58.878Z,37.40
2019-01-30T15:46:32.490Z,35.17
2019-01-30T15:49:06.521Z,35.57
2019-01-30T15:51:40.310Z,34.10
2019-01-30T15:54:14.021Z,34.60
2019-01-30T15:56:47.585Z,34.13
2019-01-30T15:59:21.392Z,32.83
2019-01-30T16:01:54.995Z,32.07
2019-01-30T16:04:28.695Z,35.00
2019-01-30T16:07:02.296Z,34.37
2019-01-30T16:09:36.020Z,34.93
2019-01-30T16:12:09.619Z,33.90
2019-01-30T16:14:43.320Z,34.17
2019-01-30T16:17:17.103Z,33.27
2019-01-30T16:19:50.991Z,37.37
2019-01-30T16:22:25.928Z,35.47
2019-01-30T16:25:08.744Z,35.47
2019-01-30T16:27:34.995Z,35.57
2019-01-30T16:30:11.708Z,36.77
2019-01-30T16:32:45.638Z,33.60
2019-01-30T16:35:27.973Z,35.20
2019-01-30T16:38:01.711Z,36.07
2019-01-30T16:40:35.501Z,38.07
2019-01-30T16:43:09.331Z,38.77
2019-01-30T16:45:43.175Z,38.50
2019-01-30T16:48:17.303Z,39.00
2019-01-30T16:50:52.000Z,39.40
2019-01-30T16:53:26.394Z,37.07
2019-01-30T16:56:00.039Z,38.27
2019-01-30T16:58:34.179Z,40.53
2019-01-30T17:01:08.011Z,46.30
2019-01-30T17:03:41.743Z,46.97
2019-01-30T17:06:15.418Z,46.63
2019-01-30T17:08:49.165Z,44.67
2019-01-30T17:15:13.161Z,41.73
2019-01-30T17:17:46.907Z,42.87
2019-01-30T17:20:23.002Z,41.53
2019-01-30T17:22:56.602Z,39.03
2019-01-30T17:25:30.396Z,38.13
2019-01-30T17:31:50.072Z,35.60
2019-01-30T17:34:23.853Z,36.03
2019-01-30T17:36:57.513Z,36.17
2019-01-30T17:39:31.148Z,36.07
2019-01-30T17:42:04.963Z,34.70
2019-01-30T17:44:38.697Z,35.33
2019-01-30T17:47:12.575Z,35.90
2019-01-30T17:49:46.437Z,34.03
2019-01-30T17:52:20.062Z,32.83
2019-01-30T17:54:53.691Z,34.60
2019-01-30T17:57:27.277Z,34.73
2019-01-30T18:00:00.885Z,36.07
2019-01-30T18:02:34.605Z,33.97
2019-01-30T18:05:08.440Z,35.20
2019-01-30T18:07:42.168Z,35.40
2019-01-30T18:10:17.918Z,34.90
2019-01-30T18:12:51.467Z,37.30
2019-01-30T18:15:25.267Z,35.30
2019-01-30T18:17:58.956Z,36.80
2019-01-30T18:20:32.721Z,38.43
2019-01-30T18:23:06.436Z,37.60
2019-01-30T18:25:40.125Z,41.97
2019-01-30T18:28:13.859Z,40.90
2019-01-30T18:30:47.455Z,43.50
2019-01-30T18:33:21.135Z,41.87
2019-01-30T18:35:55.089Z,42.10
2019-01-30T18:38:29.718Z,42.80
2019-01-30T18:41:04.411Z,43.03
2019-01-30T18:43:38.240Z,39.13
2019-01-30T18:46:12.185Z,39.57
2019-01-30T18:48:45.931Z,40.40
2019-01-30T18:51:19.768Z,40.10
2019-01-30T18:53:53.609Z,40.60
2019-01-30T18:56:27.295Z,39.80
2019-01-30T18:59:01.109Z,39.73
2019-01-30T19:01:35.184Z,41.43
2019-01-30T19:04:08.983Z,41.57
2019-01-30T19:06:52.101Z,45.23
2019-01-30T19:09:18.225Z,43.43
2019-01-30T19:14:43.672Z,38.73
2019-01-30T19:17:17.304Z,40.70
2019-01-30T19:19:51.014Z,39.53
2019-01-30T19:22:24.739Z,38.70
2019-01-30T19:24:58.417Z,39.57
2019-01-30T19:31:21.391Z,39.17
2019-01-30T19:33:55.449Z,39.43
2019-01-30T19:36:29.906Z,39.37
2019-01-30T19:39:08.811Z,39.30
2019-01-30T19:41:43.311Z,38.13
2019-01-30T19:48:03.578Z,33.37
2019-01-30T19:50:37.189Z,34.17
2019-01-30T19:53:10.914Z,31.63
2019-01-30T19:55:44.579Z,31.87
2019-01-30T19:58:18.297Z,30.27
2019-01-30T20:00:51.956Z,31.80
2019-01-30T20:03:25.842Z,30.80
2019-01-30T20:05:59.510Z,31.17
2019-01-30T20:08:33.203Z,30.50
2019-01-30T20:11:06.943Z,30.13
2019-01-30T20:13:40.659Z,32.57
2019-01-30T20:16:14.389Z,32.67
2019-01-30T20:18:48.099Z,31.67
2019-01-30T20:21:21.768Z,30.53
2019-01-30T20:23:55.416Z,27.93
2019-01-30T20:26:29.075Z,26.73
2019-01-30T20:29:02.851Z,26.60
2019-01-30T20:31:36.447Z,26.27
2019-01-30T20:34:10.678Z,26.37
2019-01-30T20:36:44.356Z,27.97
2019-01-30T20:39:17.995Z,27.07
2019-01-30T20:41:51.618Z,27.57
2019-01-30T20:44:25.249Z,28.73
2019-01-30T20:46:58.902Z,28.97
2019-01-30T20:49:32.535Z,30.03
2019-01-30T20:52:06.237Z,28.13
2019-01-30T20:54:40.799Z,30.80
2019-01-30T20:57:14.593Z,30.77
2019-01-30T20:59:48.220Z,28.90
2019-01-30T21:02:21.920Z,26.90
2019-01-30T21:04:55.574Z,28.47
2019-01-30T21:07:37.198Z,27.97
2019-01-30T21:10:07.584Z,28.97
2019-01-30T21:15:41.800Z,28.67
2019-01-30T21:18:18.115Z,28.03
2019-01-30T21:20:50.690Z,29.20
2019-01-30T21:23:24.353Z,26.73
2019-01-30T21:25:58.064Z,27.63
2019-01-30T21:32:17.960Z,26.13
2019-01-30T21:34:51.608Z,25.20
2019-01-30T21:37:25.312Z,27.60
2019-01-30T21:39:58.912Z,28.53
2019-01-30T21:42:32.561Z,26.57
2019-01-30T21:48:52.079Z,24.77
2019-01-30T21:51:25.672Z,27.17
2019-01-30T21:53:59.351Z,26.73
2019-01-30T21:56:32.929Z,27.53
2019-01-30T21:59:06.600Z,29.93
2019-01-30T22:01:40.200Z,29.30
2019-01-30T22:04:13.833Z,28.90
2019-01-30T22:06:47.504Z,31.03
2019-01-30T22:09:21.152Z,32.93
2019-01-30T22:11:54.768Z,32.20
2019-01-30T22:14:28.384Z,31.20
2019-01-30T22:17:01.981Z,32.63
2019-01-30T22:19:35.606Z,30.93
2019-01-30T22:22:09.202Z,30.97
2019-01-30T22:24:42.836Z,33.23
2019-01-30T22:27:16.454Z,32.93
2019-01-30T22:29:50.146Z,32.80
2019-01-30T22:32:23.841Z,32.63
2019-01-30T22:34:57.484Z,32.97
2019-01-30T22:37:31.083Z,32.03
2019-01-30T22:40:07.336Z,33.13
2019-01-30T22:42:41.008Z,34.47
2019-01-30T22:45:19.276Z,30.63
2019-01-30T22:47:52.854Z,31.97
2019-01-30T22:50:26.470Z,34.30
2019-01-30T22:53:00.079Z,32.80
2019-01-30T22:55:33.781Z,34.73
2019-01-30T22:58:07.500Z,30.97
2019-01-30T23:00:51.850Z,31.73
2019-01-30T23:03:34.298Z,30.77
2019-01-30T23:06:16.942Z,31.23
2019-01-30T23:08:56.244Z,31.70
2019-01-30T23:11:45.048Z,31.33
2019-01-30T23:18:13.528Z,30.03
2019-01-30T23:20:50.526Z,32.03
2019-01-30T23:23:55.542Z,32.10
2019-01-30T23:26:32.202Z,32.53
2019-01-30T23:33:03.950Z,32.20
2019-01-30T23:36:01.468Z,32.87
2019-01-30T23:38:40.962Z,33.20
2019-01-30T23:41:29.632Z,33.07
2019-01-30T23:47:46.247Z,33.43
2019-01-30T23:50:37.537Z,31.83
2019-01-30T23:53:16.860Z,33.83
2019-01-30T23:56:10.924Z,32.87
2019-01-30T23:58:53.702Z,36.50
